Delta Virtual Airport Information Service

Savannah Hilton Head International Airport

ICAO: KSAV Country: United States
Latitude: 32.1276 Longitude: -81.2021
Latest Arrival : JBU1041 (KJFK-KSAV) Latest Departure : AAY1332 (1) (KSAV-KCVG)


WX CaptureLIVE
Data provided by noaa.gov | Fetched at 04:56:18

METAR : KSAV 030953Z AUTO 27005KT 10SM CLR 11/10 A3005 RMK AO2 SLP176 T01110100

TAF : KSAV 030528Z 0306/0406 24004KT P6SM SKC FM031300 29004KT P6SM SKC FM031900 19006KT P6SM SCT250


Runway Data for KSAV
Data provided by openaviationdata.com

Runway ID Mag Var Hdg Length Elevation Surface ILS Freq ILS Id ILS Slope
9 -6 96° 9341 ft 50 ft Concrete 109.9 ISAV 3
18 -6 185° 7017 ft 50 ft Asphalt -- -- --
27 -6 276° 9341 ft 50 ft Concrete -- -- --
36 -6 7017 ft 50 ft Asphalt 111.9 ITPV 3

Savannah Hilton Head International Airport, United States
Use only for reference purposes



Not for navigational purposes.